Time;durP1;ratioP1;P1;durP2;ratioP2;P2;SDS_P1;SDS_P2;PMS_P1;PMS_P2;Temp;Humidity;BMP_temperature;BMP_pressure;BME280_temperature;BME280_humidity;BME280_pressure;Samples;Min_cycle;Max_cycle;Signal;HPM_P1;HPM_P2
2020/12/14 00:00:17;;;;;;;6.65;2.40;;;6.50;99.90;;;;;;5135210;27;20649;-84
2020/12/14 00:02:43;;;;;;;5.65;2.38;;;6.50;99.90;;;;;;5126893;27;20209;-84
2020/12/14 00:05:11;;;;;;;8.60;2.65;;;6.50;99.90;;;;;;5135683;27;20201;-84
2020/12/14 00:07:37;;;;;;;7.38;3.35;;;6.50;99.90;;;;;;5127377;27;20181;-84
2020/12/14 00:10:05;;;;;;;5.03;2.53;;;6.60;99.90;;;;;;5135387;27;20189;-85
2020/12/14 00:12:32;;;;;;;4.05;2.28;;;6.70;99.90;;;;;;5122302;27;20208;-85
2020/12/14 00:14:58;;;;;;;5.65;1.90;;;6.70;99.90;;;;;;5118446;27;20173;-84
2020/12/14 00:17:24;;;;;;;9.18;3.50;;;6.80;99.90;;;;;;5122286;27;20231;-85
2020/12/14 00:19:51;;;;;;;3.35;1.73;;;6.80;99.90;;;;;;5117264;27;20678;-85
2020/12/14 00:22:18;;;;;;;5.43;2.00;;;6.80;99.90;;;;;;5124157;27;20214;-86
2020/12/14 00:24:47;;;;;;;3.75;1.40;;;6.90;99.90;;;;;;5110426;28;20183;-85
2020/12/14 00:27:15;;;;;;;4.60;1.80;;;7.00;99.90;;;;;;5134725;27;20652;-85
2020/12/14 00:29:41;;;;;;;2.80;1.70;;;7.00;99.90;;;;;;5129666;27;20545;-86
2020/12/14 00:32:07;;;;;;;4.55;2.20;;;7.00;99.90;;;;;;5094219;28;20186;-85
2020/12/14 00:34:33;;;;;;;3.90;2.25;;;7.10;99.90;;;;;;5097203;28;20178;-85
2020/12/14 00:37:00;;;;;;;5.55;1.95;;;7.10;99.90;;;;;;5114551;28;20194;-85
2020/12/14 00:39:27;;;;;;;5.53;2.75;;;7.10;99.90;;;;;;5113330;28;20191;-85
2020/12/14 00:41:53;;;;;;;3.33;2.60;;;7.10;99.90;;;;;;5129708;27;20213;-85
2020/12/14 00:44:19;;;;;;;7.07;2.13;;;7.10;99.90;;;;;;5122627;27;20645;-85
2020/12/14 00:46:46;;;;;;;4.25;2.08;;;7.10;99.90;;;;;;5094051;28;20203;-85
2020/12/14 00:49:12;;;;;;;5.13;2.67;;;7.10;99.90;;;;;;5120191;27;20181;-87
2020/12/14 00:51:38;;;;;;;5.60;2.75;;;7.00;99.90;;;;;;5114182;28;20181;-84
2020/12/14 00:54:06;;;;;;;5.28;2.30;;;7.00;99.90;;;;;;5125832;27;20177;-85
2020/12/14 00:56:33;;;;;;;4.65;2.30;;;7.00;99.90;;;;;;5100573;27;20293;-85
2020/12/14 00:58:59;;;;;;;3.22;1.90;;;7.00;99.90;;;;;;5114228;28;20659;-85
2020/12/14 01:01:26;;;;;;;4.10;2.35;;;7.00;99.90;;;;;;5117597;28;20229;-84
2020/12/14 01:03:52;;;;;;;5.55;2.50;;;7.00;99.90;;;;;;5114366;28;20242;-84
2020/12/14 01:06:18;;;;;;;3.88;3.58;;;7.00;99.90;;;;;;5099873;28;20186;-82
2020/12/14 01:08:44;;;;;;;4.28;2.10;;;7.00;99.90;;;;;;5107652;28;20660;-84
2020/12/14 01:11:11;;;;;;;4.40;3.05;;;7.00;99.90;;;;;;5124949;28;20185;-83
2020/12/14 01:13:40;;;;;;;4.28;1.77;;;7.10;99.90;;;;;;5119416;28;20190;-84
2020/12/14 01:16:08;;;;;;;7.70;3.25;;;7.10;99.90;;;;;;5114457;28;20182;-84
2020/12/14 01:18:36;;;;;;;4.80;2.20;;;7.10;99.90;;;;;;5114720;28;20303;-84
2020/12/14 01:21:02;;;;;;;5.05;2.15;;;7.10;99.90;;;;;;5106726;28;20213;-84
2020/12/14 01:23:28;;;;;;;3.55;1.92;;;7.10;99.90;;;;;;5114242;28;20190;-84
2020/12/14 01:25:55;;;;;;;7.47;2.70;;;7.20;99.90;;;;;;5110104;28;20195;-85
2020/12/14 01:28:21;;;;;;;2.78;1.50;;;7.10;99.90;;;;;;5094135;28;20186;-84
2020/12/14 01:30:48;;;;;;;3.03;1.95;;;7.20;99.90;;;;;;5112409;28;20186;-84
2020/12/14 01:33:14;;;;;;;4.75;2.38;;;7.20;99.90;;;;;;5127382;28;20216;-84
2020/12/14 01:35:40;;;;;;;4.97;1.95;;;7.10;99.90;;;;;;5123155;28;20186;-85
2020/12/14 01:38:06;;;;;;;6.03;2.60;;;7.10;99.90;;;;;;5118293;28;20595;-85
2020/12/14 01:40:33;;;;;;;5.05;2.30;;;7.10;99.90;;;;;;5118664;28;20591;-86
2020/12/14 01:42:59;;;;;;;4.25;1.85;;;7.10;99.90;;;;;;5102356;28;20542;-85
2020/12/14 01:45:25;;;;;;;3.15;1.70;;;7.10;99.90;;;;;;5103104;28;20187;-84
2020/12/14 01:47:53;;;;;;;5.70;2.45;;;7.10;99.90;;;;;;5095359;28;20187;-85
2020/12/14 01:50:19;;;;;;;3.55;1.75;;;7.00;99.90;;;;;;5120781;27;20181;-85
2020/12/14 01:52:47;;;;;;;5.25;1.85;;;7.00;99.90;;;;;;5138582;27;20644;-85
2020/12/14 01:55:15;;;;;;;7.00;2.30;;;7.00;99.90;;;;;;5121303;27;20182;-84
2020/12/14 01:57:42;;;;;;;4.30;1.63;;;7.10;99.90;;;;;;5117554;28;20186;-85
2020/12/14 02:00:10;;;;;;;9.32;2.58;;;7.20;99.90;;;;;;5117648;27;20186;-85
2020/12/14 02:02:36;;;;;;;3.90;1.77;;;7.20;99.90;;;;;;5117303;28;20232;-84
2020/12/14 02:05:05;;;;;;;3.22;1.88;;;7.20;99.90;;;;;;5120293;27;20189;-85
2020/12/14 02:07:31;;;;;;;7.13;2.20;;;7.20;99.90;;;;;;5121662;27;20185;-84
2020/12/14 02:09:57;;;;;;;5.85;2.03;;;7.20;99.90;;;;;;5124334;27;20186;-85
2020/12/14 02:12:25;;;;;;;4.70;1.70;;;7.20;99.90;;;;;;5117064;27;20189;-84
2020/12/14 02:14:52;;;;;;;2.20;1.20;;;7.10;99.90;;;;;;5107993;28;20193;-83
2020/12/14 02:17:19;;;;;;;5.72;1.95;;;7.10;99.90;;;;;;5118640;27;20190;-85
2020/12/14 02:19:46;;;;;;;8.27;2.10;;;7.10;99.90;;;;;;5144267;27;20185;-83
2020/12/14 02:22:15;;;;;;;6.97;2.35;;;7.00;99.90;;;;;;5140781;27;20198;-83
2020/12/14 02:24:46;;;;;;;4.55;1.92;;;6.90;99.90;;;;;;5132189;27;20174;-83
2020/12/14 02:27:14;;;;;;;3.65;1.80;;;6.90;99.90;;;;;;5122200;28;20213;-85
2020/12/14 02:29:44;;;;;;;7.78;2.30;;;6.90;99.90;;;;;;5145832;27;20625;-83
2020/12/14 02:32:11;;;;;;;3.58;2.65;;;6.90;99.90;;;;;;5133877;27;20185;-85
2020/12/14 02:34:40;;;;;;;4.88;1.92;;;6.90;99.90;;;;;;5117812;27;20182;-84
2020/12/14 02:37:07;;;;;;;3.00;1.50;;;6.90;99.90;;;;;;5125579;27;20174;-85
2020/12/14 02:39:37;;;;;;;3.72;2.13;;;6.80;99.90;;;;;;5106923;28;20190;-84
2020/12/14 02:42:05;;;;;;;9.45;2.83;;;6.80;99.90;;;;;;5124276;27;20550;-84
2020/12/14 02:44:31;;;;;;;4.30;1.80;;;6.70;99.90;;;;;;5130604;27;20189;-84
2020/12/14 02:46:58;;;;;;;3.67;1.70;;;6.70;99.90;;;;;;5132249;27;20182;-85
2020/12/14 02:49:24;;;;;;;6.13;1.60;;;6.60;99.90;;;;;;5130361;27;20189;-84
2020/12/14 02:51:50;;;;;;;4.60;1.33;;;6.60;99.90;;;;;;5133083;27;20276;-85
2020/12/14 02:54:16;;;;;;;4.97;2.20;;;6.70;99.90;;;;;;5127776;27;20234;-85
2020/12/14 02:56:43;;;;;;;3.75;1.90;;;6.80;99.90;;;;;;5117733;28;20208;-85
2020/12/14 02:59:11;;;;;;;3.10;1.75;;;6.90;99.90;;;;;;5106804;28;20270;-85
2020/12/14 03:01:37;;;;;;;4.38;1.40;;;6.90;99.90;;;;;;5095701;28;20218;-85
2020/12/14 03:04:03;;;;;;;3.10;1.60;;;6.90;99.90;;;;;;5095700;28;20257;-85
2020/12/14 03:06:29;;;;;;;6.30;2.40;;;7.10;99.90;;;;;;5095783;28;20202;-85
2020/12/14 03:08:55;;;;;;;5.90;2.20;;;7.00;99.90;;;;;;5110198;27;20190;-85
2020/12/14 03:11:22;;;;;;;4.70;2.40;;;7.00;99.90;;;;;;5101992;27;20576;-84
2020/12/14 03:13:48;;;;;;;2.33;1.60;;;7.10;99.90;;;;;;5100746;27;20178;-84
2020/12/14 03:16:15;;;;;;;3.92;2.15;;;7.10;99.90;;;;;;5116033;28;20205;-84
2020/12/14 03:18:41;;;;;;;3.50;1.65;;;7.10;99.90;;;;;;5116006;28;20193;-84
2020/12/14 03:21:08;;;;;;;3.03;1.40;;;7.10;99.90;;;;;;5119450;28;20259;-85
2020/12/14 03:23:34;;;;;;;3.67;1.95;;;7.10;99.90;;;;;;5119529;27;20186;-85
2020/12/14 03:26:01;;;;;;;4.32;1.67;;;7.20;99.90;;;;;;5116781;28;20190;-83
2020/12/14 03:28:27;;;;;;;3.13;1.60;;;7.20;99.90;;;;;;5116677;28;20198;-85
2020/12/14 03:30:53;;;;;;;4.25;1.30;;;7.20;99.90;;;;;;5116176;28;20519;-84
2020/12/14 03:33:21;;;;;;;4.60;1.73;;;7.20;99.90;;;;;;5115350;28;20239;-84
2020/12/14 03:35:47;;;;;;;4.82;2.58;;;7.20;99.90;;;;;;5116178;28;20190;-84
2020/12/14 03:38:13;;;;;;;2.63;1.65;;;7.30;99.90;;;;;;5120164;27;20205;-83
2020/12/14 03:40:40;;;;;;;3.78;1.45;;;7.30;99.90;;;;;;5136533;27;20193;-84
2020/12/14 03:43:06;;;;;;;2.85;1.52;;;7.30;99.90;;;;;;5133400;27;20299;-84
2020/12/14 03:45:32;;;;;;;3.95;1.92;;;7.30;99.90;;;;;;5115819;28;20186;-84
2020/12/14 03:47:58;;;;;;;4.38;1.95;;;7.30;99.90;;;;;;5115572;28;20668;-84
2020/12/14 03:50:26;;;;;;;4.60;1.70;;;7.30;99.90;;;;;;5116457;28;20231;-84
2020/12/14 03:52:52;;;;;;;7.20;1.50;;;7.40;99.90;;;;;;5117771;27;20193;-84
2020/12/14 03:55:18;;;;;;;3.10;1.40;;;7.40;99.90;;;;;;5098615;28;20197;-84
2020/12/14 03:57:44;;;;;;;3.10;1.70;;;7.40;99.90;;;;;;5109155;27;20633;-84
2020/12/14 04:00:11;;;;;;;3.88;1.80;;;7.40;99.90;;;;;;5116231;28;20243;-85
2020/12/14 04:02:37;;;;;;;2.95;1.60;;;7.40;99.90;;;;;;5126354;27;20228;-85
2020/12/14 04:05:03;;;;;;;3.13;1.85;;;7.40;99.90;;;;;;5104390;27;20190;-84
2020/12/14 04:07:31;;;;;;;3.75;2.05;;;7.40;99.90;;;;;;5112184;27;20182;-84
2020/12/14 04:09:57;;;;;;;3.95;1.30;;;7.50;99.90;;;;;;5106049;27;20548;-84
2020/12/14 04:12:23;;;;;;;4.93;1.60;;;7.50;99.90;;;;;;5103557;28;20178;-83
2020/12/14 04:14:49;;;;;;;4.28;1.40;;;7.50;99.90;;;;;;5109147;27;20185;-84
2020/12/14 04:17:15;;;;;;;3.45;2.28;;;7.50;99.90;;;;;;5138257;27;20186;-84
2020/12/14 04:19:42;;;;;;;2.90;1.52;;;7.60;99.90;;;;;;5126388;27;20193;-84
2020/12/14 04:22:09;;;;;;;11.52;2.30;;;7.60;99.90;;;;;;5144564;27;20676;-84
2020/12/14 04:24:37;;;;;;;3.65;1.65;;;7.60;99.90;;;;;;5133734;27;20261;-83
2020/12/14 04:27:03;;;;;;;4.43;1.88;;;7.70;99.90;;;;;;5118048;28;20182;-84
2020/12/14 04:29:30;;;;;;;3.25;1.27;;;7.70;99.90;;;;;;5133195;27;20190;-83
2020/12/14 04:31:56;;;;;;;5.90;2.55;;;7.70;99.90;;;;;;5120615;28;20178;-84
2020/12/14 04:34:22;;;;;;;3.17;1.23;;;7.70;99.90;;;;;;5123434;28;20250;-84
2020/12/14 04:36:50;;;;;;;3.50;1.38;;;7.70;99.90;;;;;;5123016;28;20178;-84
2020/12/14 04:39:17;;;;;;;2.47;1.63;;;7.70;99.90;;;;;;5137374;27;20272;-84
2020/12/14 04:41:45;;;;;;;6.88;2.08;;;7.80;99.90;;;;;;5143376;27;20221;-84
2020/12/14 04:44:12;;;;;;;2.05;1.10;;;7.80;99.90;;;;;;5135752;27;20189;-81
2020/12/14 04:46:38;;;;;;;4.20;1.25;;;7.80;99.90;;;;;;5143655;27;20181;-84
2020/12/14 04:49:06;;;;;;;5.40;1.48;;;7.80;99.90;;;;;;5117500;28;20189;-83
2020/12/14 04:51:33;;;;;;;4.35;1.30;;;7.80;99.90;;;;;;5131239;27;20188;-84
2020/12/14 04:54:01;;;;;;;7.40;2.22;;;7.80;99.90;;;;;;5112570;28;20186;-83
2020/12/14 04:56:28;;;;;;;2.92;1.60;;;7.80;99.90;;;;;;5117629;27;20186;-83
2020/12/14 04:58:56;;;;;;;3.58;1.30;;;7.80;99.90;;;;;;5123994;27;20186;-85
2020/12/14 05:01:23;;;;;;;2.42;1.40;;;7.90;99.90;;;;;;5122619;28;20213;-84
2020/12/14 05:03:49;;;;;;;3.40;1.42;;;7.90;99.90;;;;;;5103234;28;20258;-85
2020/12/14 05:06:15;;;;;;;4.28;1.98;;;7.80;99.90;;;;;;5105787;28;20181;-84
2020/12/14 05:08:42;;;;;;;4.95;2.33;;;7.80;99.90;;;;;;5114128;28;20182;-84
2020/12/14 05:11:08;;;;;;;3.85;1.80;;;7.80;99.90;;;;;;5106865;28;20173;-84
2020/12/14 05:13:34;;;;;;;7.22;1.52;;;7.80;99.90;;;;;;5121916;28;20178;-84
2020/12/14 05:16:02;;;;;;;5.30;1.88;;;7.80;99.90;;;;;;5114633;28;20661;-84
2020/12/14 05:18:28;;;;;;;3.75;1.80;;;7.80;99.90;;;;;;5132511;28;20185;-84
2020/12/14 05:20:59;;;;;;;2.53;1.40;;;7.80;99.90;;;;;;5113172;28;20201;-84
2020/12/14 05:23:26;;;;;;;2.75;1.58;;;7.70;99.90;;;;;;5096363;28;20183;-85
2020/12/14 05:26:03;;;;;;;4.07;1.58;;;7.70;99.90;;;;;;5099481;28;20183;-85
2020/12/14 05:28:29;;;;;;;2.05;1.08;;;7.60;99.90;;;;;;5098908;28;20186;-84
2020/12/14 05:30:55;;;;;;;2.88;1.30;;;7.60;99.90;;;;;;5108498;28;20187;-84
2020/12/14 05:33:24;;;;;;;6.53;1.52;;;7.60;99.90;;;;;;5136813;27;20193;-85
2020/12/14 05:35:51;;;;;;;7.22;1.98;;;7.60;99.90;;;;;;5128710;27;20186;-85
2020/12/14 05:38:22;;;;;;;2.65;1.58;;;7.60;99.90;;;;;;5136048;27;20182;-85
2020/12/14 05:40:51;;;;;;;4.32;2.00;;;7.60;99.90;;;;;;5121501;27;20550;-85
2020/12/14 05:43:21;;;;;;;4.25;2.03;;;7.60;99.90;;;;;;5117860;28;20213;-85
2020/12/14 05:45:48;;;;;;;3.08;1.58;;;7.60;99.90;;;;;;5117688;27;20178;-84
2020/12/14 05:48:27;;;;;;;4.45;1.92;;;7.60;99.90;;;;;;5117909;28;20185;-85
2020/12/14 05:50:55;;;;;;;4.35;2.50;;;7.60;99.90;;;;;;5110674;27;20175;-85
2020/12/14 05:53:22;;;;;;;4.72;1.58;;;7.50;99.90;;;;;;5097867;28;20203;-84
2020/12/14 05:55:49;;;;;;;2.60;1.67;;;7.60;99.90;;;;;;5112523;27;20246;-85
2020/12/14 05:58:16;;;;;;;2.92;1.73;;;7.60;99.90;;;;;;5106883;28;20186;-84
2020/12/14 06:00:44;;;;;;;2.15;1.42;;;7.60;99.90;;;;;;5114657;27;20218;-85
2020/12/14 06:03:11;;;;;;;5.25;1.60;;;7.60;99.90;;;;;;5124998;28;20226;-85
2020/12/14 06:05:38;;;;;;;2.90;1.63;;;7.70;99.90;;;;;;5132174;27;20184;-85
2020/12/14 06:08:25;;;;;;;2.90;1.48;;;7.70;99.90;;;;;;5144912;27;20240;-84
2020/12/14 06:10:51;;;;;;;2.63;1.50;;;7.70;99.90;;;;;;5112257;28;20633;-84
2020/12/14 06:13:22;;;;;;;4.57;1.30;;;7.70;99.90;;;;;;5118772;27;20196;-84
2020/12/14 06:15:50;;;;;;;7.65;4.18;;;7.80;99.90;;;;;;5099799;28;20606;-84
2020/12/14 06:18:21;;;;;;;4.32;1.80;;;7.80;99.90;;;;;;5109696;28;20186;-84
2020/12/14 06:20:49;;;;;;;2.85;1.55;;;7.80;99.90;;;;;;5098927;28;20305;-84
2020/12/14 06:23:17;;;;;;;3.55;1.80;;;7.90;99.90;;;;;;5106137;27;20228;-85
2020/12/14 06:25:45;;;;;;;4.35;1.85;;;7.90;99.90;;;;;;5097597;28;20221;-84
2020/12/14 06:28:27;;;;;;;3.13;1.50;;;7.90;99.90;;;;;;5113995;28;20213;-84
2020/12/14 06:30:54;;;;;;;2.80;1.40;;;7.90;99.90;;;;;;5116538;28;20182;-83
2020/12/14 06:33:32;;;;;;;3.78;1.77;;;7.90;99.90;;;;;;5120550;27;20636;-85
2020/12/14 06:36:15;;;;;;;4.50;1.90;;;7.80;99.90;;;;;;5131422;27;20185;-85
2020/12/14 06:38:42;;;;;;;4.00;2.10;;;7.80;99.90;;;;;;5138046;27;20246;-85
2020/12/14 06:41:12;;;;;;;5.65;1.60;;;7.80;99.90;;;;;;5133454;27;20185;-84
2020/12/14 06:43:39;;;;;;;3.78;1.92;;;7.80;99.90;;;;;;5137386;27;20544;-86
2020/12/14 06:46:05;;;;;;;2.55;1.48;;;7.80;99.90;;;;;;5127754;27;20178;-84
2020/12/14 06:48:43;;;;;;;4.25;1.90;;;7.90;99.90;;;;;;5116963;28;20194;-85
2020/12/14 06:51:12;;;;;;;3.95;1.70;;;7.90;99.90;;;;;;5116277;27;20186;-85
2020/12/14 06:53:47;;;;;;;3.47;1.98;;;8.00;99.90;;;;;;5101241;27;20194;-86
2020/12/14 06:56:15;;;;;;;3.33;1.50;;;8.10;99.90;;;;;;5101379;27;20239;-85
2020/12/14 06:58:43;;;;;;;3.20;1.83;;;8.10;99.90;;;;;;5102657;28;20190;-86
2020/12/14 07:01:37;;;;;;;3.10;1.40;;;8.10;99.90;;;;;;5102786;28;20218;-85
2020/12/14 07:04:05;;;;;;;3.95;1.70;;;8.10;99.90;;;;;;5049015;28;20183;-87
2020/12/14 07:06:33;;;;;;;2.40;1.20;;;8.10;99.90;;;;;;5096252;28;20643;-86
2020/12/14 07:08:59;;;;;;;3.42;1.90;;;8.20;99.90;;;;;;5097810;28;20187;-86
2020/12/14 07:11:26;;;;;;;4.57;3.30;;;8.20;99.90;;;;;;5097365;27;20524;-86
2020/12/14 07:13:54;;;;;;;2.92;1.50;;;8.10;99.90;;;;;;5115293;28;20193;-87
2020/12/14 07:16:29;;;;;;;5.25;2.35;;;8.10;99.90;;;;;;5101056;27;20211;-84
2020/12/14 07:18:56;;;;;;;3.38;1.98;;;8.20;99.90;;;;;;5117533;27;20186;-85
2020/12/14 07:21:22;;;;;;;6.38;1.60;;;8.20;99.90;;;;;;5122732;27;20212;-86
2020/12/14 07:23:52;;;;;;;2.90;1.20;;;8.20;99.90;;;;;;5123985;27;20209;-84
2020/12/14 07:26:18;;;;;;;5.10;1.85;;;8.20;99.90;;;;;;5117846;27;20197;-86
2020/12/14 07:28:49;;;;;;;3.50;1.70;;;8.20;99.90;;;;;;5111144;28;20190;-87
2020/12/14 07:31:17;;;;;;;4.65;2.30;;;8.20;99.90;;;;;;5108804;27;20181;-86
2020/12/14 07:33:55;;;;;;;3.85;1.50;;;8.30;99.90;;;;;;5116886;27;20194;-85
2020/12/14 07:36:22;;;;;;;4.55;2.05;;;8.30;99.90;;;;;;5110287;27;20269;-85
2020/12/14 07:38:51;;;;;;;2.55;1.48;;;8.40;99.90;;;;;;5104430;28;20185;-85
2020/12/14 07:41:18;;;;;;;3.67;1.60;;;8.40;99.90;;;;;;5104527;27;20217;-85
2020/12/14 07:43:49;;;;;;;4.15;2.60;;;8.40;99.90;;;;;;5097008;27;20194;-85
2020/12/14 07:46:24;;;;;;;2.67;1.33;;;8.40;99.90;;;;;;5102340;28;20208;-86
2020/12/14 07:48:55;;;;;;;5.03;1.80;;;8.40;99.90;;;;;;5114005;28;20197;-85
2020/12/14 07:51:22;;;;;;;2.50;1.50;;;8.50;99.90;;;;;;5103569;27;20183;-84
2020/12/14 07:53:51;;;;;;;3.50;2.22;;;8.50;99.90;;;;;;5094930;28;20531;-83
2020/12/14 07:56:18;;;;;;;5.75;1.95;;;8.50;99.90;;;;;;5110610;27;20186;-85
2020/12/14 07:58:45;;;;;;;2.78;1.73;;;8.50;99.90;;;;;;5115308;28;20193;-84
2020/12/14 08:01:16;;;;;;;3.63;1.40;;;8.50;99.90;;;;;;5121651;27;20220;-85
2020/12/14 08:03:42;;;;;;;3.75;1.52;;;8.50;99.90;;;;;;5121100;27;20214;-84
2020/12/14 08:06:13;;;;;;;3.67;1.65;;;8.40;99.90;;;;;;5094363;28;20191;-84
2020/12/14 08:08:41;;;;;;;2.60;1.45;;;8.40;99.90;;;;;;5094413;28;20548;-83
2020/12/14 08:11:09;;;;;;;4.03;2.30;;;8.30;99.90;;;;;;5094694;28;20191;-84
2020/12/14 08:13:38;;;;;;;2.35;1.60;;;8.30;99.90;;;;;;5094606;28;20580;-84
2020/12/14 08:16:05;;;;;;;2.70;1.70;;;8.20;99.90;;;;;;5094537;28;20191;-84
2020/12/14 08:18:31;;;;;;;5.18;2.20;;;8.20;99.90;;;;;;5094586;28;20190;-82
2020/12/14 08:20:58;;;;;;;3.53;2.35;;;8.10;99.90;;;;;;5095021;28;20213;-83
2020/12/14 08:23:27;;;;;;;3.05;2.00;;;8.10;99.90;;;;;;5094904;28;20898;-83
2020/12/14 08:25:53;;;;;;;5.38;1.83;;;8.00;99.90;;;;;;5094606;28;20190;-82
2020/12/14 08:28:28;;;;;;;4.32;2.15;;;8.00;99.90;;;;;;5110370;28;20186;-83
2020/12/14 08:30:55;;;;;;;3.40;2.10;;;7.90;99.90;;;;;;5114641;28;20656;-83
2020/12/14 08:33:21;;;;;;;6.13;2.65;;;7.90;99.90;;;;;;5114921;28;20190;-82
2020/12/14 08:35:49;;;;;;;5.25;2.65;;;7.80;99.90;;;;;;5115113;28;20199;-83
2020/12/14 08:38:17;;;;;;;3.83;2.30;;;7.70;99.90;;;;;;5114545;28;20694;-83
2020/12/14 08:40:52;;;;;;;8.43;3.50;;;7.70;99.90;;;;;;5114563;28;20239;-84
2020/12/14 08:43:19;;;;;;;4.88;2.90;;;7.70;99.90;;;;;;5114471;28;20692;-83
2020/12/14 08:46:05;;;;;;;3.80;2.10;;;7.70;99.90;;;;;;5114675;28;20194;-84
2020/12/14 08:48:33;;;;;;;3.70;2.30;;;7.70;99.90;;;;;;5115580;28;20200;-84
2020/12/14 08:51:08;;;;;;;5.22;2.25;;;7.70;99.90;;;;;;5128813;27;20246;-83
2020/12/14 08:53:34;;;;;;;3.20;2.63;;;7.70;99.90;;;;;;5130171;27;20190;-84
2020/12/14 08:56:03;;;;;;;5.38;2.42;;;7.70;99.90;;;;;;5113866;28;20201;-86
2020/12/14 08:58:29;;;;;;;5.65;2.47;;;7.70;99.90;;;;;;5111967;27;20209;-85
2020/12/14 09:00:56;;;;;;;3.83;2.30;;;7.80;99.90;;;;;;5104066;28;20242;-84
2020/12/14 09:03:23;;;;;;;6.88;2.60;;;7.70;99.90;;;;;;5114327;28;20214;-86
2020/12/14 09:05:49;;;;;;;3.50;2.30;;;7.80;99.90;;;;;;5105851;28;20571;-85
2020/12/14 09:08:17;;;;;;;6.82;2.65;;;7.90;99.90;;;;;;5132721;27;20691;-85
2020/12/14 09:10:59;;;;;;;3.90;2.35;;;7.90;99.90;;;;;;5101862;28;20189;-85
2020/12/14 09:13:25;;;;;;;5.38;3.65;;;7.90;99.90;;;;;;5114342;28;20186;-84
2020/12/14 09:15:54;;;;;;;4.55;2.42;;;8.00;99.90;;;;;;5112795;28;20194;-84
2020/12/14 09:18:20;;;;;;;4.70;2.55;;;8.00;99.90;;;;;;5120815;28;20186;-84
2020/12/14 09:20:47;;;;;;;5.32;2.30;;;8.10;99.90;;;;;;5094858;28;20183;-86
2020/12/14 09:23:18;;;;;;;3.83;2.05;;;8.10;99.90;;;;;;5103372;28;20671;-85
2020/12/14 09:25:44;;;;;;;6.72;2.50;;;8.20;99.90;;;;;;5098059;28;20178;-85
2020/12/14 09:28:11;;;;;;;5.63;1.90;;;8.20;99.90;;;;;;5101353;28;20277;-84
2020/12/14 09:30:37;;;;;;;4.47;2.83;;;8.30;99.90;;;;;;5105289;28;20195;-86
2020/12/14 09:33:03;;;;;;;4.07;2.22;;;8.30;99.90;;;;;;5097234;28;20592;-84
2020/12/14 09:35:29;;;;;;;3.33;1.83;;;8.50;99.90;;;;;;5105097;28;20666;-85
2020/12/14 09:37:56;;;;;;;5.40;2.30;;;8.50;99.90;;;;;;5108768;28;20187;-85
2020/12/14 09:40:23;;;;;;;3.42;1.75;;;8.60;99.90;;;;;;5109161;28;20283;-83
2020/12/14 09:42:49;;;;;;;3.92;1.88;;;8.60;99.90;;;;;;5132839;28;20223;-84
2020/12/14 09:45:16;;;;;;;5.68;1.85;;;8.70;99.90;;;;;;5129058;28;20217;-83
2020/12/14 09:47:44;;;;;;;3.30;2.10;;;8.80;99.90;;;;;;5099673;28;20187;-84
2020/12/14 09:50:10;;;;;;;3.30;1.85;;;8.90;99.90;;;;;;5102235;28;20250;-85
2020/12/14 09:52:37;;;;;;;4.00;1.88;;;9.00;99.90;;;;;;5101470;28;20221;-86
2020/12/14 09:55:04;;;;;;;3.83;1.80;;;9.00;99.90;;;;;;5115228;28;20562;-84
2020/12/14 09:57:31;;;;;;;3.67;2.17;;;9.00;99.90;;;;;;5116651;28;20202;-84
2020/12/14 09:59:57;;;;;;;7.93;2.55;;;9.00;99.90;;;;;;5113574;28;20191;-84
2020/12/14 10:02:23;;;;;;;3.72;2.00;;;8.90;99.90;;;;;;5116922;28;20568;-83
2020/12/14 10:04:49;;;;;;;5.00;2.90;;;8.90;99.90;;;;;;5109150;28;20183;-85
2020/12/14 10:07:16;;;;;;;3.70;2.20;;;8.90;99.90;;;;;;5103468;28;20186;-84
2020/12/14 10:09:42;;;;;;;4.75;2.03;;;8.80;99.90;;;;;;5119012;27;20182;-84
2020/12/14 10:12:09;;;;;;;4.72;2.25;;;8.80;99.90;;;;;;5119408;27;20213;-84
2020/12/14 10:14:35;;;;;;;3.20;2.50;;;8.80;99.90;;;;;;5104769;27;20187;-84
2020/12/14 10:17:02;;;;;;;5.82;2.78;;;8.70;99.90;;;;;;5105015;27;20190;-84
2020/12/14 10:19:29;;;;;;;5.40;2.20;;;8.70;99.90;;;;;;5121702;28;20250;-84
2020/12/14 10:21:55;;;;;;;4.00;3.13;;;8.60;99.90;;;;;;5123974;27;20197;-85
2020/12/14 10:24:21;;;;;;;6.97;2.83;;;8.60;99.90;;;;;;5121568;27;20187;-85
2020/12/14 10:26:49;;;;;;;2.90;2.20;;;8.60;99.90;;;;;;5118737;28;20182;-85
2020/12/14 10:29:17;;;;;;;3.50;2.10;;;8.60;99.90;;;;;;5111757;27;20589;-84
2020/12/14 10:31:44;;;;;;;4.35;2.45;;;8.70;99.90;;;;;;5104859;28;20194;-84
2020/12/14 10:34:11;;;;;;;5.88;2.70;;;8.70;99.90;;;;;;5117983;27;20186;-85
2020/12/14 10:36:37;;;;;;;3.90;2.55;;;8.80;99.90;;;;;;5117161;28;20182;-85
2020/12/14 10:39:03;;;;;;;4.22;2.50;;;8.90;99.90;;;;;;5117444;27;20537;-84
2020/12/14 10:41:29;;;;;;;3.30;2.58;;;8.90;99.90;;;;;;5117354;28;20629;-84
2020/12/14 10:43:56;;;;;;;4.47;2.40;;;8.90;99.90;;;;;;5112413;27;20233;-83
2020/12/14 10:46:25;;;;;;;2.90;2.30;;;8.90;99.90;;;;;;5099197;28;20194;-85
2020/12/14 10:48:51;;;;;;;3.55;2.05;;;8.80;99.90;;;;;;5108899;28;20187;-83
2020/12/14 10:51:17;;;;;;;3.50;2.25;;;8.80;99.90;;;;;;5097822;28;20316;-86
2020/12/14 10:53:44;;;;;;;6.93;2.50;;;8.80;99.90;;;;;;5130287;27;20185;-86
2020/12/14 10:56:10;;;;;;;5.07;2.55;;;8.80;99.90;;;;;;5138508;27;20189;-84
2020/12/14 10:58:36;;;;;;;3.97;2.58;;;8.80;99.90;;;;;;5119181;27;20179;-87
2020/12/14 11:01:03;;;;;;;3.25;2.65;;;8.70;99.90;;;;;;5116877;28;20214;-86
2020/12/14 11:03:30;;;;;;;3.83;2.47;;;8.70;99.90;;;;;;5128845;27;20704;-85
2020/12/14 11:05:56;;;;;;;4.43;2.58;;;8.70;99.90;;;;;;5119018;28;20186;-87
2020/12/14 11:08:22;;;;;;;5.70;2.55;;;8.70;99.90;;;;;;5119714;27;20186;-87
2020/12/14 11:10:49;;;;;;;3.65;2.03;;;8.80;99.90;;;;;;5128495;28;20186;-86
2020/12/14 11:13:15;;;;;;;2.83;2.05;;;8.80;99.90;;;;;;5113748;27;20217;-86
2020/12/14 11:15:42;;;;;;;7.30;2.80;;;8.90;99.90;;;;;;5099998;28;20195;-85
2020/12/14 11:18:08;;;;;;;7.55;3.08;;;9.10;99.90;;;;;;5109156;28;20185;-85
2020/12/14 11:20:35;;;;;;;5.85;2.70;;;9.10;99.90;;;;;;5111732;28;20186;-84
2020/12/14 11:23:02;;;;;;;5.22;2.70;;;9.10;99.90;;;;;;5100848;28;20280;-86
2020/12/14 11:25:31;;;;;;;6.45;3.40;;;9.10;99.90;;;;;;5103756;28;20187;-85
2020/12/14 11:27:58;;;;;;;3.72;2.83;;;9.10;99.90;;;;;;5101114;28;20186;-86
2020/12/14 11:30:24;;;;;;;4.38;2.88;;;9.10;99.90;;;;;;5106781;28;20277;-87
2020/12/14 11:32:51;;;;;;;3.78;2.50;;;9.10;99.90;;;;;;5124051;28;20186;-87
2020/12/14 11:35:17;;;;;;;8.85;2.97;;;9.10;99.90;;;;;;5105392;28;20194;-86
2020/12/14 11:37:44;;;;;;;7.72;3.85;;;9.10;99.90;;;;;;5105563;28;20214;-86
2020/12/14 11:40:12;;;;;;;4.57;3.38;;;9.10;99.90;;;;;;5104813;28;20182;-85
2020/12/14 11:42:38;;;;;;;4.60;2.80;;;9.10;99.90;;;;;;5110200;27;20201;-85
2020/12/14 11:45:07;;;;;;;5.13;3.13;;;9.10;99.90;;;;;;5111656;28;20182;-84
2020/12/14 11:47:34;;;;;;;5.47;2.92;;;9.10;99.90;;;;;;5108693;28;20194;-85
2020/12/14 11:50:00;;;;;;;8.25;3.90;;;9.10;99.90;;;;;;5125483;28;20193;-86
2020/12/14 11:52:26;;;;;;;8.80;5.75;;;9.20;99.90;;;;;;5102876;28;20203;-85
2020/12/14 11:54:53;;;;;;;10.15;4.78;;;9.20;99.90;;;;;;5103288;28;20240;-86
2020/12/14 11:57:19;;;;;;;5.60;4.50;;;9.30;99.90;;;;;;5120938;28;20186;-86
2020/12/14 11:59:45;;;;;;;6.20;3.47;;;9.30;99.90;;;;;;5113659;28;20660;-84
2020/12/14 12:02:15;;;;;;;8.35;4.18;;;9.40;99.90;;;;;;5118289;28;20210;-84
2020/12/14 12:04:41;;;;;;;6.13;4.80;;;9.40;99.90;;;;;;5108976;28;20191;-85
2020/12/14 12:07:07;;;;;;;10.35;5.88;;;9.40;99.90;;;;;;5102823;28;20187;-85
2020/12/14 12:09:36;;;;;;;6.57;3.50;;;9.40;99.90;;;;;;5102837;28;20568;-84
2020/12/14 12:12:04;;;;;;;13.48;9.25;;;9.50;99.90;;;;;;5102714;28;20187;-85
2020/12/14 12:14:30;;;;;;;5.32;3.65;;;9.40;99.90;;;;;;5102660;28;20629;-84
2020/12/14 12:16:56;;;;;;;5.75;3.42;;;9.50;99.90;;;;;;5104418;28;20178;-85
2020/12/14 12:19:22;;;;;;;8.48;2.90;;;9.60;99.90;;;;;;5109287;28;20186;-85
2020/12/14 12:21:49;;;;;;;5.93;3.95;;;9.60;99.90;;;;;;5095347;28;20195;-85
2020/12/14 12:24:15;;;;;;;4.18;2.90;;;9.60;99.90;;;;;;5098994;28;20214;-84
2020/12/14 12:26:42;;;;;;;5.80;3.60;;;9.60;99.90;;;;;;5115059;28;20204;-84
2020/12/14 12:29:09;;;;;;;11.15;7.68;;;9.60;99.90;;;;;;5110240;28;20214;-85
2020/12/14 12:31:35;;;;;;;9.93;6.63;;;9.70;99.90;;;;;;5094061;28;20270;-84
2020/12/14 12:34:01;;;;;;;5.28;3.30;;;9.70;99.90;;;;;;5102010;28;20190;-84
2020/12/14 12:36:27;;;;;;;4.93;3.38;;;9.70;99.90;;;;;;5095521;28;20201;-84
2020/12/14 12:38:54;;;;;;;5.40;2.90;;;10.20;99.90;;;;;;5095830;28;20194;-84
2020/12/14 12:41:20;;;;;;;4.88;2.60;;;10.90;99.90;;;;;;5096015;28;20190;-84
2020/12/14 12:43:46;;;;;;;8.80;6.30;;;11.30;99.90;;;;;;5096453;28;20272;-85
2020/12/14 12:46:13;;;;;;;4.70;2.78;;;11.30;99.90;;;;;;5096200;28;20184;-85
2020/12/14 12:48:39;;;;;;;5.32;3.53;;;11.20;99.90;;;;;;5109650;28;20193;-85
2020/12/14 12:51:07;;;;;;;7.20;2.65;;;11.10;99.90;;;;;;5112968;28;20186;-87
2020/12/14 12:53:34;;;;;;;5.60;2.92;;;11.00;99.90;;;;;;5115087;28;20182;-86
2020/12/14 12:56:00;;;;;;;4.57;2.28;;;10.80;99.90;;;;;;5114665;28;20246;-85
2020/12/14 12:58:27;;;;;;;4.25;2.55;;;10.60;99.90;;;;;;5110793;28;20194;-86